Time;durP1;ratioP1;P1;durP2;ratioP2;P2;SDS_P1;SDS_P2;PMS_P1;PMS_P2;Temp;Humidity;BMP_temperature;BMP_pressure;BME280_temperature;BME280_humidity;BME280_pressure;Samples;Min_cycle;Max_cycle;Signal;HPM_P1;HPM_P2
2022/05/15 00:02:08;;;;;;;5.18;2.50;;;13.40;91.90;;;;;;5109960;28;20097;-69
2022/05/15 00:04:33;;;;;;;4.18;2.30;;;13.40;92.50;;;;;;5102899;28;20031;-69
2022/05/15 00:06:59;;;;;;;3.80;2.10;;;13.40;92.30;;;;;;5109875;28;20038;-67
2022/05/15 00:09:25;;;;;;;4.07;2.17;;;13.30;93.10;;;;;;5112737;28;20043;-69
2022/05/15 00:11:50;;;;;;;4.43;2.53;;;13.40;94.30;;;;;;5112338;28;20468;-70
2022/05/15 00:14:16;;;;;;;4.38;2.40;;;13.30;94.20;;;;;;5113906;28;20028;-69
2022/05/15 00:16:42;;;;;;;3.78;2.40;;;13.30;94.50;;;;;;5114392;28;20456;-69
2022/05/15 00:19:09;;;;;;;2.72;1.85;;;13.20;95.40;;;;;;5113115;28;20080;-69
2022/05/15 00:21:36;;;;;;;4.07;2.05;;;13.10;96.10;;;;;;5105639;28;20028;-69
2022/05/15 00:24:04;;;;;;;4.75;2.22;;;13.10;96.90;;;;;;5112945;28;20523;-68
2022/05/15 00:26:31;;;;;;;3.17;2.15;;;13.10;97.30;;;;;;5106328;28;20040;-68
2022/05/15 00:28:56;;;;;;;3.75;2.60;;;13.10;97.50;;;;;;5109995;28;20028;-69
2022/05/15 00:31:23;;;;;;;3.65;2.10;;;13.00;97.90;;;;;;5107500;28;20033;-68
2022/05/15 00:33:50;;;;;;;4.45;2.00;;;12.90;98.10;;;;;;5113245;28;20395;-69
2022/05/15 00:36:16;;;;;;;2.75;2.00;;;12.90;98.60;;;;;;5100359;28;20047;-70
2022/05/15 00:38:42;;;;;;;5.43;2.30;;;12.90;99.20;;;;;;5113879;28;20106;-70
2022/05/15 00:41:08;;;;;;;3.85;2.58;;;12.80;99.70;;;;;;5104532;28;20131;-70
2022/05/15 00:43:37;;;;;;;4.25;2.30;;;12.80;99.90;;;;;;5100089;28;20061;-70
2022/05/15 00:46:06;;;;;;;6.10;2.65;;;12.80;99.90;;;;;;5103392;28;20024;-67
2022/05/15 00:48:32;;;;;;;3.75;2.47;;;12.70;99.90;;;;;;5112854;28;20396;-70
2022/05/15 00:51:02;;;;;;;4.07;2.30;;;12.70;99.90;;;;;;5113328;28;20030;-69
2022/05/15 00:53:28;;;;;;;;;;;12.70;99.90;;;;;;5113737;28;20047;-70
2022/05/15 00:55:54;;;;;;;4.07;2.40;;;12.70;99.90;;;;;;5113497;28;19939;-71
2022/05/15 00:58:25;;;;;;;5.35;2.85;;;12.60;99.90;;;;;;5105060;28;20054;-70
2022/05/15 01:00:52;;;;;;;3.25;2.35;;;12.60;99.90;;;;;;5113501;28;20027;-69
2022/05/15 01:03:19;;;;;;;3.42;2.30;;;12.60;99.90;;;;;;5106861;28;20074;-71
2022/05/15 01:05:48;;;;;;;3.47;2.10;;;12.50;99.90;;;;;;5109455;28;20115;-70
2022/05/15 01:08:14;;;;;;;4.13;2.33;;;12.50;99.90;;;;;;5111270;28;20068;-69
2022/05/15 01:10:44;;;;;;;3.05;2.13;;;12.40;99.90;;;;;;5107025;28;20391;-69
2022/05/15 01:13:11;;;;;;;4.63;2.30;;;12.40;99.90;;;;;;5111920;28;20032;-68
2022/05/15 01:15:38;;;;;;;4.10;2.30;;;12.40;99.90;;;;;;5110422;28;20036;-69
2022/05/15 01:18:05;;;;;;;4.43;2.35;;;12.40;99.90;;;;;;5110756;28;20019;-67
2022/05/15 01:20:32;;;;;;;4.22;2.25;;;12.30;99.90;;;;;;5112335;28;20066;-68
2022/05/15 01:22:59;;;;;;;3.95;2.33;;;12.40;99.90;;;;;;5113064;28;20036;-70
2022/05/15 01:25:34;;;;;;;3.25;1.90;;;12.30;99.90;;;;;;5109855;28;20032;-69
2022/05/15 01:28:11;;;;;;;4.05;2.17;;;12.30;99.90;;;;;;5088448;28;20027;-70
2022/05/15 01:30:40;;;;;;;5.32;2.40;;;12.30;99.90;;;;;;5112679;28;20031;-68
2022/05/15 01:33:07;;;;;;;6.05;2.30;;;12.20;99.90;;;;;;5104759;28;20023;-68
2022/05/15 01:35:32;;;;;;;3.05;2.33;;;12.20;99.90;;;;;;5111873;28;20034;-69
2022/05/15 01:37:58;;;;;;;2.60;1.90;;;12.20;99.90;;;;;;5112408;28;20020;-69
2022/05/15 01:40:24;;;;;;;2.65;1.90;;;12.10;99.90;;;;;;5110982;28;20070;-69
2022/05/15 01:42:49;;;;;;;4.80;2.30;;;12.10;99.90;;;;;;5112363;28;20043;-69
2022/05/15 01:45:15;;;;;;;4.40;2.35;;;12.10;99.90;;;;;;5112002;28;20092;-69
2022/05/15 01:47:41;;;;;;;3.65;2.40;;;12.00;99.90;;;;;;5109512;28;20043;-70
2022/05/15 01:50:09;;;;;;;2.58;1.95;;;12.00;99.90;;;;;;5103735;28;20046;-71
2022/05/15 01:52:36;;;;;;;3.20;2.15;;;12.00;99.90;;;;;;5102685;28;20034;-70
2022/05/15 01:55:02;;;;;;;4.18;1.88;;;11.90;99.90;;;;;;5101740;28;20024;-69
2022/05/15 01:57:28;;;;;;;2.97;1.98;;;11.90;99.90;;;;;;5101576;28;20016;-71
2022/05/15 01:59:54;;;;;;;2.58;2.08;;;11.80;99.90;;;;;;5100550;28;20487;-72
2022/05/15 02:02:20;;;;;;;5.00;2.08;;;11.80;99.90;;;;;;5102079;28;20110;-72
2022/05/15 02:04:46;;;;;;;6.25;2.00;;;11.80;99.90;;;;;;5103612;28;20111;-71
2022/05/15 02:07:12;;;;;;;4.72;2.05;;;11.80;99.90;;;;;;5099613;28;20036;-71
2022/05/15 02:09:38;;;;;;;3.20;1.80;;;11.70;99.90;;;;;;5104170;28;20034;-70
2022/05/15 02:12:04;;;;;;;3.08;2.13;;;11.70;99.90;;;;;;5101946;28;20102;-69
2022/05/15 02:14:30;;;;;;;5.45;2.00;;;11.70;99.90;;;;;;5104710;28;20055;-68
2022/05/15 02:16:55;;;;;;;2.47;1.80;;;11.60;99.90;;;;;;5108449;28;20055;-70
2022/05/15 02:19:21;;;;;;;3.40;2.05;;;11.60;99.90;;;;;;5100291;28;20028;-69
2022/05/15 02:21:47;;;;;;;3.92;1.98;;;11.60;99.90;;;;;;5103611;28;20081;-70
2022/05/15 02:24:13;;;;;;;3.22;1.92;;;11.50;99.90;;;;;;5102575;28;20389;-69
2022/05/15 02:26:39;;;;;;;3.83;2.05;;;11.50;99.90;;;;;;5101895;28;20055;-70
2022/05/15 02:29:07;;;;;;;2.75;1.90;;;11.50;99.90;;;;;;5098758;28;20079;-68
2022/05/15 02:31:32;;;;;;;2.95;2.35;;;11.50;99.90;;;;;;5103649;28;20063;-70
2022/05/15 02:34:01;;;;;;;2.60;1.90;;;11.50;99.90;;;;;;5102510;28;20024;-70
2022/05/15 02:36:28;;;;;;;3.20;1.88;;;11.50;99.90;;;;;;5102536;28;20084;-69
2022/05/15 02:38:54;;;;;;;2.78;2.20;;;11.50;99.90;;;;;;5105083;28;20035;-70
2022/05/15 02:41:19;;;;;;;7.32;2.08;;;11.50;99.90;;;;;;5103335;28;20047;-71
2022/05/15 02:43:45;;;;;;;4.53;2.38;;;11.50;99.90;;;;;;5100409;28;20035;-70
2022/05/15 02:46:11;;;;;;;3.05;2.10;;;11.50;99.90;;;;;;5100359;28;20528;-71
2022/05/15 02:51:21;;;;;;;6.78;2.65;;;11.50;99.90;;;;;;5101206;28;20141;-69
2022/05/15 02:53:47;;;;;;;3.70;1.88;;;11.50;99.90;;;;;;5101515;28;20468;-71
2022/05/15 02:56:22;;;;;;;3.58;2.30;;;11.40;99.90;;;;;;5110721;28;20054;-70
2022/05/15 02:58:48;;;;;;;3.58;1.95;;;11.40;99.90;;;;;;5111417;28;20092;-70
2022/05/15 03:01:15;;;;;;;2.67;1.98;;;11.50;99.90;;;;;;5105812;28;20030;-71
2022/05/15 03:03:41;;;;;;;2.90;2.00;;;11.40;99.90;;;;;;5104471;28;20031;-71
2022/05/15 03:06:07;;;;;;;4.75;1.92;;;11.40;99.90;;;;;;5104760;28;20031;-70
2022/05/15 03:08:35;;;;;;;4.07;2.20;;;11.40;99.90;;;;;;5110615;28;20102;-70
2022/05/15 03:11:01;;;;;;;2.67;1.80;;;11.40;99.90;;;;;;5108101;28;20020;-72
2022/05/15 03:13:26;;;;;;;3.03;1.80;;;11.40;99.90;;;;;;5107426;28;20036;-70
2022/05/15 03:15:52;;;;;;;3.72;2.03;;;11.40;99.90;;;;;;5106956;28;20044;-70
2022/05/15 03:18:18;;;;;;;5.63;2.00;;;11.40;99.90;;;;;;5109087;28;20020;-71
2022/05/15 03:20:44;;;;;;;3.17;1.90;;;11.40;99.90;;;;;;5115391;28;20102;-70
2022/05/15 03:23:09;;;;;;;3.78;2.25;;;11.50;99.90;;;;;;5108506;28;20481;-70
2022/05/15 03:25:35;;;;;;;4.28;2.17;;;11.50;99.90;;;;;;5113444;28;20035;-71
2022/05/15 03:28:01;;;;;;;4.40;2.25;;;11.50;99.90;;;;;;5109504;28;20434;-71
2022/05/15 03:30:27;;;;;;;3.95;1.90;;;11.40;99.90;;;;;;5113571;28;20035;-69
2022/05/15 03:32:53;;;;;;;2.65;1.88;;;11.40;99.90;;;;;;5109956;28;20173;-70
2022/05/15 03:35:18;;;;;;;4.15;2.10;;;11.40;99.90;;;;;;5107797;28;20027;-71
2022/05/15 03:37:44;;;;;;;4.55;2.13;;;11.40;99.90;;;;;;5108239;28;20032;-70
2022/05/15 03:40:11;;;;;;;3.58;1.73;;;11.40;99.90;;;;;;5096084;28;20115;-69
2022/05/15 03:42:38;;;;;;;4.68;2.15;;;;;;;;;;5101312;28;20067;-70
2022/05/15 03:45:06;;;;;;;2.85;1.77;;;;;;;;;;5112693;28;20020;-69
2022/05/15 03:47:35;;;;;;;2.45;1.77;;;;;;;;;;5106066;28;20105;-70
2022/05/15 03:50:07;;;;;;;3.60;1.83;;;;;;;;;;5109563;28;20024;-69
2022/05/15 03:52:35;;;;;;;4.22;2.15;;;;;;;;;;5114571;28;20372;-71
2022/05/15 03:55:04;;;;;;;2.40;1.60;;;;;;;;;;5112424;28;20030;-72
2022/05/15 03:57:33;;;;;;;3.50;1.67;;;;;;;;;;5105953;28;20023;-70
2022/05/15 04:00:04;;;;;;;3.85;2.00;;;;;;;;;;5109190;28;20353;-69
2022/05/15 04:02:32;;;;;;;3.95;1.92;;;;;;;;;;5113157;28;20035;-70
2022/05/15 04:04:58;;;;;;;5.65;2.13;;;;;;;;;;5109683;28;20104;-70
2022/05/15 04:07:24;;;;;;;4.82;2.22;;;;;;;;;;5104030;28;20114;-70
2022/05/15 04:09:50;;;;;;;2.40;1.80;;;;;;;;;;5110333;28;20024;-70
2022/05/15 04:12:16;;;;;;;5.80;2.10;;;;;;;;;;5109235;28;20077;-71
2022/05/15 04:14:43;;;;;;;4.40;2.35;;;;;;;;;;5110959;28;20024;-70
2022/05/15 04:17:09;;;;;;;3.10;2.00;;;;;;;;;;5108455;28;20384;-68
2022/05/15 04:19:36;;;;;;;2.22;1.70;;;;;;;;;;5114215;28;20024;-70
2022/05/15 04:22:04;;;;;;;3.92;1.70;;;;;;;;;;5113601;28;20118;-70
2022/05/15 04:24:31;;;;;;;2.53;1.77;;;;;;;;;;5106449;28;20457;-71
2022/05/15 04:26:57;;;;;;;2.78;1.92;;;;;;;;;;5112931;28;20047;-71
2022/05/15 04:29:24;;;;;;;3.55;1.80;;;;;;;;;;5113530;28;20081;-70
2022/05/15 04:31:55;;;;;;;4.13;2.40;;;;;;;;;;5109524;28;20035;-77
2022/05/15 04:34:21;;;;;;;2.85;2.05;;;;;;;;;;5109399;28;20023;-71
2022/05/15 04:36:48;;;;;;;2.38;2.00;;;;;;;;;;5108215;28;20032;-70
2022/05/15 04:39:15;;;;;;;2.53;1.83;;;;;;;;;;5111690;28;20047;-72
2022/05/15 04:41:41;;;;;;;3.92;2.33;;;;;;;;;;5111990;28;20060;-71
2022/05/15 04:44:07;;;;;;;4.82;2.28;;;;;;;;;;5107005;28;20127;-69
2022/05/15 04:46:33;;;;;;;3.97;2.40;;;;;;;;;;5108993;28;20032;-72
2022/05/15 04:48:59;;;;;;;8.25;2.55;;;;;;;;;;5107798;28;20023;-74
2022/05/15 04:51:26;;;;;;;7.15;2.40;;;;;;;;;;5110066;28;20043;-74
2022/05/15 04:53:52;;;;;;;5.20;2.22;;;;;;;;;;5112080;28;20445;-73
2022/05/15 04:56:18;;;;;;;3.35;2.63;;;;;;;;;;5113048;28;20028;-72
2022/05/15 04:58:44;;;;;;;4.47;1.95;;;;;;;;;;5112716;28;20019;-72
2022/05/15 05:01:10;;;;;;;4.35;1.95;;;;;;;;;;5112615;28;20094;-70
2022/05/15 05:03:36;;;;;;;3.70;2.10;;;;;;;;;;5111062;28;20043;-71
2022/05/15 05:06:02;;;;;;;3.95;2.30;;;;;;;;;;5111599;28;20027;-74
2022/05/15 05:08:28;;;;;;;5.30;2.30;;;;;;;;;;5110420;28;20028;-71
2022/05/15 05:10:54;;;;;;;5.45;2.90;;;;;;;;;;5111049;28;20027;-74
2022/05/15 05:13:20;;;;;;;4.60;2.78;;;;;;;;;;5109340;28;20472;-73
2022/05/15 05:15:46;;;;;;;3.67;2.70;;;;;;;;;;5110937;28;20019;-75
2022/05/15 05:18:16;;;;;;;7.03;3.35;;;;;;;;;;5110690;28;20024;-73
2022/05/15 05:20:43;;;;;;;6.18;2.83;;;;;;;;;;5110615;28;20024;-73
2022/05/15 05:23:09;;;;;;;7.63;3.35;;;;;;;;;;5112686;28;20464;-70
2022/05/15 05:25:35;;;;;;;7.10;3.85;;;;;;;;;;5105083;28;20065;-73
2022/05/15 05:28:01;;;;;;;4.88;3.42;;;;;;;;;;5112337;28;20028;-74
2022/05/15 05:30:27;;;;;;;10.27;4.07;;;;;;;;;;5112100;28;20032;-73
2022/05/15 05:32:54;;;;;;;6.15;3.45;;;;;;;;;;5112677;28;20031;-74
2022/05/15 05:35:21;;;;;;;5.55;3.13;;;;;;;;;;5108666;28;20023;-75
2022/05/15 05:37:47;;;;;;;13.30;3.88;;;;;;;;;;5109382;28;20012;-73
2022/05/15 05:40:13;;;;;;;6.60;3.80;;;;;;;;;;5107161;28;20540;-72
2022/05/15 05:42:39;;;;;;;6.45;3.47;;;;;;;;;;5103701;28;20070;-72
2022/05/15 05:45:06;;;;;;;8.60;3.20;;;;;;;;;;5111935;28;20063;-73
2022/05/15 05:47:32;;;;;;;7.93;3.00;;;;;;;;;;5111735;28;20028;-72
2022/05/15 05:49:58;;;;;;;7.28;3.50;;;;;;;;;;5111921;28;20027;-73
2022/05/15 05:52:24;;;;;;;5.68;3.65;;;;;;;;;;5106465;28;20042;-71
2022/05/15 05:54:51;;;;;;;8.48;3.95;;;;;;;;;;5109684;28;20057;-72
2022/05/15 05:57:17;;;;;;;5.40;3.45;;;;;;;;;;5111252;28;20027;-73
2022/05/15 05:59:43;;;;;;;6.72;3.53;;;;;;;;;;5107555;28;20040;-74
2022/05/15 06:02:09;;;;;;;8.77;3.72;;;;;;;;;;5111414;28;20027;-70
2022/05/15 06:04:40;;;;;;;5.25;3.33;;;;;;;;;;5105259;28;20106;-73
2022/05/15 06:07:06;;;;;;;7.95;3.65;;;;;;;;;;5105615;28;20126;-74
2022/05/15 06:09:32;;;;;;;7.20;3.42;;;;;;;;;;5105967;28;20046;-73
2022/05/15 06:11:58;;;;;;;7.30;3.28;;;;;;;;;;5097220;28;20097;-76
2022/05/15 06:14:24;;;;;;;9.40;4.70;;;18.00;99.90;;;;;;5107128;28;20027;-73
2022/05/15 06:16:49;;;;;;;5.15;3.28;;;15.20;99.90;;;;;;5112310;28;20024;-74
2022/05/15 06:19:15;;;;;;;5.28;3.40;;;15.20;99.90;;;;;;5110931;28;20030;-72
2022/05/15 06:21:40;;;;;;;6.47;3.90;;;15.30;99.90;;;;;;5109482;28;20036;-72
2022/05/15 06:24:06;;;;;;;6.85;3.20;;;15.40;99.90;;;;;;5112151;28;20024;-74
2022/05/15 06:26:32;;;;;;;3.15;2.55;;;15.50;99.90;;;;;;5118294;28;20711;-75
2022/05/15 06:28:58;;;;;;;10.63;3.15;;;15.60;99.90;;;;;;5119458;28;20032;-75
2022/05/15 06:31:23;;;;;;;7.03;3.40;;;15.60;99.90;;;;;;5110537;28;20051;-72
2022/05/15 06:33:49;;;;;;;11.45;3.53;;;15.70;99.90;;;;;;5112237;28;20034;-76
2022/05/15 06:36:15;;;;;;;4.85;3.05;;;15.90;99.90;;;;;;5106694;28;20023;-71
2022/05/15 06:38:42;;;;;;;7.15;3.30;;;15.90;99.90;;;;;;5112952;28;20030;-74
2022/05/15 06:41:09;;;;;;;10.30;3.22;;;16.00;99.90;;;;;;5113149;28;20446;-73
2022/05/15 06:43:35;;;;;;;4.50;3.30;;;16.10;99.90;;;;;;5109939;28;20043;-75
2022/05/15 06:46:01;;;;;;;3.72;2.53;;;16.20;99.90;;;;;;5112098;28;20043;-75
2022/05/15 06:48:27;;;;;;;8.27;3.08;;;16.20;99.90;;;;;;5111954;28;20023;-74
2022/05/15 06:50:52;;;;;;;5.68;3.35;;;16.40;99.90;;;;;;5111578;28;20023;-76
2022/05/15 06:53:18;;;;;;;6.90;3.10;;;16.50;99.90;;;;;;5111480;28;20040;-75
2022/05/15 06:58:29;;;;;;;7.15;2.60;;;16.70;99.90;;;;;;5103927;28;20031;-72
2022/05/15 07:00:54;;;;;;;10.75;3.15;;;16.80;99.90;;;;;;5110997;28;20032;-79
2022/05/15 07:03:21;;;;;;;8.10;3.20;;;16.90;99.90;;;;;;5107438;28;20085;-71
2022/05/15 07:05:47;;;;;;;8.23;3.05;;;17.00;99.70;;;;;;5107041;28;20032;-72
2022/05/15 07:08:15;;;;;;;6.43;3.70;;;17.00;99.30;;;;;;5109667;28;21987;-70
2022/05/15 07:10:40;;;;;;;4.20;2.72;;;17.10;99.00;;;;;;5107637;28;20141;-76
2022/05/15 07:13:07;;;;;;;6.03;3.05;;;17.10;98.90;;;;;;5107430;28;20067;-72
2022/05/15 07:15:33;;;;;;;4.68;2.55;;;17.10;99.30;;;;;;5110608;28;20035;-72
2022/05/15 07:17:59;;;;;;;4.97;3.20;;;17.20;99.20;;;;;;5104827;28;20024;-72
2022/05/15 07:20:24;;;;;;;4.38;2.45;;;17.30;99.30;;;;;;5106338;28;20034;-73
2022/05/15 07:22:50;;;;;;;5.53;2.78;;;17.50;98.70;;;;;;5110305;28;20468;-74
2022/05/15 07:25:16;;;;;;;6.60;2.83;;;17.70;98.80;;;;;;5110170;28;20059;-69
2022/05/15 07:27:41;;;;;;;4.07;2.42;;;17.90;97.60;;;;;;5094431;28;20081;-71
2022/05/15 07:30:08;;;;;;;7.03;2.67;;;18.00;97.90;;;;;;5107168;28;20034;-73
2022/05/15 07:32:33;;;;;;;4.53;2.28;;;18.20;97.30;;;;;;5104836;28;20231;-73
2022/05/15 07:34:59;;;;;;;6.47;2.20;;;18.40;95.40;;;;;;5106635;28;20460;-72
2022/05/15 07:37:25;;;;;;;4.93;2.65;;;18.50;94.30;;;;;;5104269;28;20400;-71
2022/05/15 07:39:51;;;;;;;4.00;1.83;;;18.70;93.70;;;;;;5110435;28;20028;-72
2022/05/15 07:42:16;;;;;;;3.55;1.80;;;18.80;93.50;;;;;;5085272;28;20081;-70
2022/05/15 07:44:42;;;;;;;3.22;2.13;;;18.90;93.60;;;;;;5104375;28;20081;-71
2022/05/15 07:47:11;;;;;;;4.47;2.50;;;18.90;93.20;;;;;;5111140;28;20030;-72
2022/05/15 07:49:37;;;;;;;9.98;2.33;;;19.10;92.10;;;;;;5101737;28;20028;-75
2022/05/15 07:52:03;;;;;;;7.80;2.00;;;19.30;91.10;;;;;;5101788;28;20025;-73
2022/05/15 07:54:29;;;;;;;4.35;1.80;;;19.40;91.30;;;;;;5102095;28;20464;-72
2022/05/15 07:56:55;;;;;;;8.63;2.35;;;19.50;91.80;;;;;;5106994;28;20035;-78
2022/05/15 07:59:21;;;;;;;5.93;2.00;;;19.70;90.60;;;;;;5104403;28;20496;-71
2022/05/15 08:01:47;;;;;;;4.70;2.28;;;19.90;90.00;;;;;;5104171;28;20420;-72
2022/05/15 08:04:13;;;;;;;7.75;2.58;;;20.10;89.00;;;;;;5111736;28;20456;-77
2022/05/15 08:09:23;;;;;;;4.38;2.22;;;20.20;86.90;;;;;;5113067;28;20038;-68
2022/05/15 08:11:48;;;;;;;8.68;2.20;;;20.40;84.90;;;;;;5109984;28;20032;-71
2022/05/15 08:14:14;;;;;;;5.28;2.10;;;20.50;84.20;;;;;;5106445;28;20020;-70
2022/05/15 08:16:40;;;;;;;3.80;2.00;;;20.60;83.20;;;;;;5104875;28;20456;-70
2022/05/15 08:24:37;;;;;;;3.83;2.08;;;20.70;82.50;;;;;;5112276;28;20038;-70
2022/05/15 08:27:04;;;;;;;7.80;2.03;;;20.90;82.00;;;;;;5110972;28;20020;-71
2022/05/15 08:29:30;;;;;;;5.57;2.10;;;21.00;80.30;;;;;;5101609;28;20455;-69
2022/05/15 08:31:56;;;;;;;4.22;2.10;;;21.10;82.30;;;;;;5112382;28;20043;-72
2022/05/15 08:34:21;;;;;;;3.97;2.03;;;21.20;81.40;;;;;;5113067;28;20059;-68
2022/05/15 08:36:47;;;;;;;7.28;2.30;;;21.40;79.90;;;;;;5109270;28;20059;-70
2022/05/15 08:39:14;;;;;;;9.18;1.90;;;21.50;81.40;;;;;;5114325;28;20023;-70
2022/05/15 08:41:51;;;;;;;5.18;1.92;;;21.70;79.00;;;;;;5112156;28;20797;-70
2022/05/15 08:44:29;;;;;;;3.35;2.00;;;21.90;77.40;;;;;;5106574;28;20027;-71
2022/05/15 08:47:19;;;;;;;4.32;1.73;;;21.90;77.50;;;;;;5104973;28;20035;-71
2022/05/15 08:49:57;;;;;;;11.45;2.08;;;22.00;76.90;;;;;;5104291;28;20111;-70
2022/05/15 08:52:23;;;;;;;6.85;1.95;;;22.20;77.00;;;;;;5111844;28;20384;-72
2022/05/15 08:55:01;;;;;;;3.67;1.85;;;22.30;76.70;;;;;;5107709;28;20099;-74
2022/05/15 08:57:32;;;;;;;3.85;1.85;;;22.40;76.40;;;;;;5108861;28;20028;-71
2022/05/15 08:59:59;;;;;;;4.35;2.30;;;22.50;76.10;;;;;;5112331;28;20023;-72
2022/05/15 09:02:25;;;;;;;4.22;2.20;;;22.70;75.40;;;;;;5108178;28;20506;-71
2022/05/15 09:04:54;;;;;;;3.67;1.85;;;22.80;74.40;;;;;;5109441;28;20095;-71
2022/05/15 09:07:29;;;;;;;5.37;1.90;;;23.00;73.40;;;;;;5108611;28;20027;-69
2022/05/15 09:10:19;;;;;;;3.70;1.88;;;23.10;73.50;;;;;;5111884;28;20027;-74
2022/05/15 09:12:49;;;;;;;;;;;23.30;73.00;;;;;;5108683;28;20038;-72
2022/05/15 09:15:22;;;;;;;3.22;1.73;;;23.50;72.40;;;;;;5109195;28;20272;-73
2022/05/15 09:18:03;;;;;;;4.35;1.98;;;23.70;70.70;;;;;;5109774;28;20066;-74
2022/05/15 09:20:43;;;;;;;3.03;1.95;;;23.80;70.60;;;;;;5112562;28;20073;-73
2022/05/15 09:23:19;;;;;;;3.42;1.85;;;23.90;69.60;;;;;;5107922;28;20385;-72
2022/05/15 09:25:55;;;;;;;5.22;1.80;;;23.90;69.10;;;;;;5108823;28;20036;-72
2022/05/15 09:28:21;;;;;;;6.13;1.73;;;24.10;68.60;;;;;;5112394;28;20023;-71
2022/05/15 09:30:50;;;;;;;4.95;1.88;;;24.20;68.10;;;;;;5112733;28;20019;-72
2022/05/15 09:33:22;;;;;;;6.35;2.03;;;24.20;68.00;;;;;;5109109;28;20051;-73
2022/05/15 09:35:47;;;;;;;3.70;1.60;;;24.30;67.70;;;;;;5101683;28;20491;-72
2022/05/15 09:38:29;;;;;;;8.18;1.60;;;24.60;66.50;;;;;;5110173;28;20023;-71
2022/05/15 09:44:36;;;;;;;3.38;1.70;;;24.80;65.40;;;;;;5102769;28;20031;-71
2022/05/15 09:47:19;;;;;;;2.67;1.63;;;24.80;64.80;;;;;;5112129;28;20460;-71
2022/05/15 09:49:46;;;;;;;4.32;1.90;;;24.70;65.50;;;;;;5107463;28;20051;-72
2022/05/15 09:52:19;;;;;;;3.40;1.60;;;24.80;64.30;;;;;;5111877;28;20392;-72
2022/05/15 09:54:47;;;;;;;2.00;1.30;;;24.80;64.40;;;;;;5106003;28;20471;-72
2022/05/15 09:57:24;;;;;;;4.07;1.80;;;24.90;64.60;;;;;;5111925;28;20034;-72
2022/05/15 09:59:57;;;;;;;3.67;2.00;;;25.10;63.50;;;;;;5103082;28;20426;-71
2022/05/15 10:02:27;;;;;;;4.97;2.08;;;25.40;62.70;;;;;;5102916;28;20036;-71
2022/05/15 10:04:54;;;;;;;4.03;1.60;;;25.40;64.60;;;;;;5108117;28;20027;-71
2022/05/15 10:07:33;;;;;;;2.35;1.27;;;25.40;63.00;;;;;;5100163;28;20036;-71
2022/05/15 10:10:16;;;;;;;7.00;1.92;;;25.60;62.20;;;;;;5107683;28;20479;-72
2022/05/15 10:12:43;;;;;;;4.43;1.83;;;25.80;61.30;;;;;;5103449;28;20372;-71
2022/05/15 10:15:11;;;;;;;4.05;1.90;;;25.90;61.40;;;;;;5111690;28;20035;-72
2022/05/15 10:17:50;;;;;;;4.00;1.77;;;26.10;61.60;;;;;;5100408;28;20458;-71
2022/05/15 10:20:31;;;;;;;4.65;1.80;;;26.20;60.90;;;;;;5101328;28;20049;-72
2022/05/15 10:23:11;;;;;;;5.10;1.50;;;26.40;60.30;;;;;;5103603;28;20388;-72
2022/05/15 10:25:49;;;;;;;;;;;26.40;60.30;;;;;;5110438;28;20122;-71
2022/05/15 10:28:42;;;;;;;4.55;1.55;;;26.40;59.50;;;;;;5104702;28;20288;-71
2022/05/15 10:31:18;;;;;;;3.55;1.98;;;26.30;59.20;;;;;;5107086;28;20035;-72
2022/05/15 10:33:48;;;;;;;2.72;2.03;;;26.50;59.10;;;;;;5101859;28;20506;-71
2022/05/15 10:36:32;;;;;;;6.40;1.80;;;26.70;58.70;;;;;;5104098;28;20016;-72
2022/05/15 10:39:26;;;;;;;4.10;1.70;;;26.80;57.30;;;;;;5111596;28;20024;-72
2022/05/15 10:42:01;;;;;;;3.25;1.80;;;26.80;56.90;;;;;;5110841;28;20071;-71
2022/05/15 10:44:51;;;;;;;7.32;2.00;;;26.80;57.20;;;;;;5110273;28;20113;-71
2022/05/15 10:47:26;;;;;;;4.72;2.00;;;26.90;59.70;;;;;;5109557;28;20380;-70
2022/05/15 10:50:03;;;;;;;3.25;1.50;;;27.10;57.10;;;;;;5111491;28;20019;-71
2022/05/15 10:57:21;;;;;;;4.63;1.60;;;27.20;57.40;;;;;;5092462;28;20028;-71
2022/05/15 10:59:45;;;;;;;3.55;1.35;;;27.60;54.60;;;;;;5064235;28;20059;-72
2022/05/15 11:02:41;;;;;;;2.50;1.60;;;27.70;54.80;;;;;;5105270;28;20054;-71
2022/05/15 11:05:30;;;;;;;3.72;1.60;;;27.80;54.80;;;;;;5105963;28;20046;-71
2022/05/15 11:07:58;;;;;;;6.63;1.92;;;27.90;54.20;;;;;;5110488;28;20026;-71
2022/05/15 11:10:36;;;;;;;4.10;1.80;;;27.90;53.80;;;;;;5107660;28;20457;-71
2022/05/15 11:13:19;;;;;;;5.65;2.25;;;28.00;53.00;;;;;;5111509;28;20039;-71
2022/05/15 11:16:13;;;;;;;2.42;1.55;;;28.10;53.50;;;;;;5110612;28;20024;-71
2022/05/15 11:18:54;;;;;;;3.80;1.38;;;28.10;54.30;;;;;;5110435;28;20027;-71
2022/05/15 11:21:26;;;;;;;3.42;1.30;;;28.20;54.60;;;;;;5110400;28;20024;-70
2022/05/15 11:23:59;;;;;;;2.85;1.88;;;28.40;54.80;;;;;;5110942;28;20027;-71
2022/05/15 11:26:41;;;;;;;2.47;1.40;;;28.70;52.00;;;;;;5107314;28;20028;-71
2022/05/15 11:29:12;;;;;;;5.72;1.70;;;28.80;51.30;;;;;;5110992;28;20113;-71
2022/05/15 11:31:44;;;;;;;2.15;1.25;;;29.10;50.10;;;;;;5109222;28;20039;-71
2022/05/15 11:34:10;;;;;;;5.05;1.60;;;29.00;50.60;;;;;;5103612;28;20080;-71
2022/05/15 11:36:40;;;;;;;6.30;1.75;;;29.10;49.30;;;;;;5114499;28;20024;-71
2022/05/15 11:39:06;;;;;;;3.33;1.52;;;29.10;49.50;;;;;;5103424;28;20028;-71
2022/05/15 11:41:38;;;;;;;6.00;1.60;;;29.00;49.60;;;;;;5113368;28;20059;-71
2022/05/15 11:44:12;;;;;;;2.63;1.55;;;29.00;49.40;;;;;;5114712;28;20045;-71
2022/05/15 11:46:47;;;;;;;2.58;1.75;;;29.00;49.80;;;;;;5106355;28;20040;-72
2022/05/15 11:49:24;;;;;;;4.60;1.90;;;29.20;50.30;;;;;;5110854;28;20035;-72
2022/05/15 11:52:14;;;;;;;6.65;1.90;;;29.40;49.40;;;;;;5111743;28;20490;-71
2022/05/15 11:54:45;;;;;;;2.50;1.48;;;29.70;48.70;;;;;;5094512;28;20562;-72
2022/05/15 11:57:30;;;;;;;4.78;1.60;;;30.00;48.20;;;;;;5114025;28;20066;-72
2022/05/15 11:59:58;;;;;;;2.92;1.63;;;30.00;48.80;;;;;;5106245;28;20024;-73
2022/05/15 12:02:24;;;;;;;1.70;1.35;;;;;;;;;;5090884;28;20372;-71
2022/05/15 12:04:54;;;;;;;4.57;1.63;;;30.30;47.50;;;;;;5114142;28;20023;-72
2022/05/15 12:07:54;;;;;;;5.88;1.90;;;30.40;47.60;;;;;;5108667;28;20028;-71
2022/05/15 12:10:49;;;;;;;3.05;1.60;;;30.60;46.70;;;;;;5107990;28;20039;-72
2022/05/15 12:13:37;;;;;;;5.82;1.42;;;30.40;47.00;;;;;;5012211;28;20154;-71
2022/05/15 12:16:49;;;;;;;2.53;1.58;;;30.10;46.70;;;;;;5111306;28;20115;-72
2022/05/15 12:19:24;;;;;;;3.45;1.60;;;;;;;;;;5104210;28;20058;-72
2022/05/15 12:21:55;;;;;;;4.68;1.65;;;;;;;;;;5104302;28;20023;-71
2022/05/15 12:24:27;;;;;;;3.20;1.83;;;;;;;;;;5111617;28;20051;-70
2022/05/15 12:27:00;;;;;;;5.07;1.60;;;;;;;;;;5113004;28;20085;-71
2022/05/15 12:29:31;;;;;;;3.80;1.58;;;;;;;;;;5112906;28;20036;-70
2022/05/15 12:31:58;;;;;;;3.60;1.42;;;;;;;;;;5107740;28;20032;-71
2022/05/15 12:34:24;;;;;;;3.05;1.85;;;;;;;;;;5109787;28;20024;-70
2022/05/15 12:36:57;;;;;;;2.97;1.38;;;;;;;;;;5113949;28;20028;-71
2022/05/15 12:39:25;;;;;;;3.35;1.48;;;;;;;;;;5111874;28;20476;-71
2022/05/15 12:41:51;;;;;;;3.55;1.70;;;;;;;;;;5109163;28;20044;-72
2022/05/15 12:44:28;;;;;;;4.93;2.08;;;;;;;;;;5105592;28;20019;-71
2022/05/15 12:46:55;;;;;;;1.63;1.30;;;;;;;;;;5108562;28;20152;-72
2022/05/15 12:49:29;;;;;;;2.78;1.50;;;;;;;;;;5109310;28;20035;-70
2022/05/15 12:52:07;;;;;;;1.98;1.33;;;;;;;;;;5109057;28;20036;-71
2022/05/15 12:54:33;;;;;;;4.22;1.90;;;;;;;;;;5103020;28;20028;-72
2022/05/15 12:57:01;;;;;;;1.92;1.38;;;;;;;;;;5113634;28;20030;-71
2022/05/15 12:59:28;;;;;;;2.83;1.48;;;;;;;;;;5112399;28;20027;-71
2022/05/15 13:01:54;;;;;;;4.43;1.80;;;;;;;;;;5112978;28;20524;-72
2022/05/15 13:04:24;;;;;;;2.83;1.55;;;;;;;;;;5111784;28;20031;-71
2022/05/15 13:06:54;;;;;;;3.08;1.48;;;;;;;;;;5113100;28;20122;-71
2022/05/15 13:09:25;;;;;;;4.32;2.00;;;;;;;;;;5111905;28;20464;-71
2022/05/15 13:11:54;;;;;;;3.67;1.55;;;;;;;;;;5112219;28;20109;-71
2022/05/15 13:14:23;;;;;;;2.30;1.45;;;;;;;;;;5112698;28;20035;-71
2022/05/15 13:16:54;;;;;;;6.22;1.80;;;;;;;;;;5112453;28;20030;-71
2022/05/15 13:19:27;;;;;;;5.70;2.05;;;;;;;;;;5112813;28;20055;-71
2022/05/15 13:21:54;;;;;;;4.32;2.13;;;;;;;;;;5111705;28;20111;-71
2022/05/15 13:24:20;;;;;;;2.08;1.27;;;;;;;;;;5112674;28;20035;-71
2022/05/15 13:26:48;;;;;;;3.60;1.85;;;;;;;;;;5112501;28;20114;-72
2022/05/15 13:29:16;;;;;;;4.53;1.50;;;;;;;;;;5110666;28;20071;-72
2022/05/15 13:31:43;;;;;;;3.38;1.63;;;;;;;;;;5104068;28;20948;-73
2022/05/15 13:34:12;;;;;;;4.32;1.80;;;;;;;;;;5110424;28;20422;-73
2022/05/15 13:36:38;;;;;;;1.98;1.60;;;;;;;;;;5104936;28;20035;-73
2022/05/15 13:44:36;;;;;;;3.00;1.35;;;;;;;;;;5109648;28;20042;-72
2022/05/15 13:47:10;;;;;;;4.28;1.85;;;;;;;;;;5095573;28;20020;-71
2022/05/15 13:49:41;;;;;;;2.83;1.52;;;;;;;;;;5109844;28;20024;-71
2022/05/15 13:52:20;;;;;;;4.03;1.77;;;;;;;;;;5111694;28;20110;-72
2022/05/15 13:54:46;;;;;;;3.83;1.95;;;;;;;;;;5111967;28;20046;-71
2022/05/15 13:57:13;;;;;;;3.72;1.80;;;;;;;;;;5107229;28;20034;-71
2022/05/15 13:59:43;;;;;;;1.60;1.50;;;;;;;;;;5105897;28;20093;-71